createdAt,value
2022-10-14T00:04:35.000Z,11.90
2022-10-14T00:09:36.658Z,11.48
2022-10-14T00:14:38.522Z,12.70
2022-10-14T00:19:40.213Z,12.02
2022-10-14T00:24:42.084Z,11.32
2022-10-14T00:29:43.760Z,11.45
2022-10-14T00:34:45.390Z,11.55
2022-10-14T00:39:47.039Z,11.73
2022-10-14T00:44:51.674Z,11.55
2022-10-14T00:49:53.453Z,10.82
2022-10-14T00:55:00.436Z,12.35
2022-10-14T01:00:10.111Z,11.73
2022-10-14T01:05:14.794Z,11.00
2022-10-14T01:10:28.417Z,12.13
2022-10-14T01:16:05.854Z,11.55
2022-10-14T01:21:28.827Z,11.00
2022-10-14T01:26:48.357Z,11.82
2022-10-14T01:32:15.979Z,11.63
2022-10-14T01:37:23.765Z,11.73
2022-10-14T01:42:33.766Z,12.38
2022-10-14T01:47:38.199Z,11.77
2022-10-14T01:52:58.445Z,12.15
2022-10-14T01:58:00.995Z,11.90
2022-10-14T02:03:02.948Z,12.45
2022-10-14T02:08:41.219Z,12.27
2022-10-14T02:13:51.487Z,13.35
2022-10-14T02:19:06.488Z,13.45
2022-10-14T02:24:20.219Z,11.90
2022-10-14T02:29:23.049Z,12.38
2022-10-14T02:34:26.139Z,12.48
2022-10-14T02:39:32.104Z,12.23
2022-10-14T02:44:33.783Z,11.80
2022-10-14T02:49:35.394Z,11.88
2022-10-14T02:54:37.000Z,11.63
2022-10-14T02:59:39.683Z,12.38
2022-10-14T03:04:41.323Z,12.88
2022-10-14T03:09:42.927Z,13.82
2022-10-14T03:14:44.554Z,12.05
2022-10-14T03:19:46.306Z,13.43
2022-10-14T03:24:47.933Z,11.77
2022-10-14T03:29:49.616Z,12.25
2022-10-14T03:34:51.235Z,11.45
2022-10-14T03:39:53.182Z,12.63
2022-10-14T03:44:54.883Z,12.93
2022-10-14T03:49:56.545Z,13.00
2022-10-14T03:54:58.687Z,13.80
2022-10-14T04:00:00.350Z,13.27
2022-10-14T04:05:02.006Z,13.27
2022-10-14T04:10:04.133Z,13.88
2022-10-14T04:15:07.680Z,13.68
2022-10-14T04:20:09.831Z,13.15
2022-10-14T04:25:11.493Z,13.77
2022-10-14T04:30:13.434Z,13.38
2022-10-14T04:35:15.225Z,13.70
2022-10-14T04:40:16.986Z,15.75
2022-10-14T04:45:18.661Z,13.27
2022-10-14T04:50:20.421Z,15.10
2022-10-14T04:55:22.118Z,13.70
2022-10-14T05:00:23.816Z,14.40
2022-10-14T05:05:25.471Z,13.43
2022-10-14T05:10:27.370Z,13.65
2022-10-14T05:15:29.194Z,14.00
2022-10-14T05:20:30.849Z,14.52
2022-10-14T05:25:32.532Z,15.18
2022-10-14T05:30:35.015Z,14.98
2022-10-14T05:35:57.441Z,14.20
2022-10-14T05:40:59.346Z,14.80
2022-10-14T05:46:01.160Z,14.70
2022-10-14T05:51:03.377Z,14.95
2022-10-14T05:56:07.698Z,17.27
2022-10-14T06:01:11.012Z,15.02
2022-10-14T06:06:14.591Z,15.55
2022-10-14T06:11:16.257Z,15.85
2022-10-14T06:16:18.147Z,18.65
2022-10-14T06:21:19.838Z,15.52
2022-10-14T06:26:21.585Z,16.20
2022-10-14T06:31:23.289Z,16.73
2022-10-14T06:36:25.056Z,16.60
2022-10-14T06:41:26.989Z,15.93
2022-10-14T06:46:29.852Z,15.57
2022-10-14T06:51:31.490Z,15.35
2022-10-14T06:56:34.323Z,14.85
2022-10-14T07:01:36.016Z,14.32
2022-10-14T07:06:38.221Z,14.23
2022-10-14T07:11:39.890Z,14.63
2022-10-14T07:16:43.739Z,13.75
2022-10-14T07:21:46.733Z,13.05
2022-10-14T07:26:48.368Z,13.75
2022-10-14T07:31:49.995Z,12.57
2022-10-14T07:36:51.633Z,12.93
2022-10-14T07:41:53.586Z,13.00
2022-10-14T07:46:55.592Z,11.88
2022-10-14T07:51:57.329Z,11.68
2022-10-14T07:56:59.326Z,11.63
2022-10-14T08:02:01.071Z,12.43
2022-10-14T08:07:04.631Z,11.90
2022-10-14T08:12:06.591Z,11.75
2022-10-14T08:17:08.256Z,10.85
2022-10-14T08:22:10.469Z,13.70
2022-10-14T08:27:12.081Z,12.05
2022-10-14T08:32:13.921Z,10.77
2022-10-14T08:37:15.592Z,10.68
2022-10-14T08:42:50.983Z,9.43
2022-10-14T08:47:55.843Z,9.90
2022-10-14T08:53:13.492Z,9.82
2022-10-14T09:03:33.489Z,9.00
2022-10-14T09:08:43.102Z,9.35
2022-10-14T09:13:48.518Z,9.30
2022-10-14T09:18:59.100Z,9.30
2022-10-14T09:24:16.670Z,8.38
2022-10-14T09:29:25.515Z,9.32
2022-10-14T09:34:36.905Z,8.48
2022-10-14T09:39:41.126Z,8.30
2022-10-14T09:44:42.874Z,7.88
2022-10-14T09:49:47.447Z,9.50
2022-10-14T09:54:58.715Z,7.55
2022-10-14T10:00:04.596Z,7.00
2022-10-14T10:05:36.071Z,6.38
2022-10-14T10:10:37.808Z,5.35
2022-10-14T10:15:41.597Z,4.40
2022-10-14T10:21:03.138Z,4.32
2022-10-14T10:26:33.470Z,4.20
2022-10-14T10:32:09.652Z,2.65
2022-10-14T10:37:38.868Z,2.55
2022-10-14T10:42:49.530Z,2.72
2022-10-14T10:48:06.806Z,2.75
2022-10-14T10:53:39.787Z,2.35
2022-10-14T10:59:15.498Z,2.47
2022-10-14T11:04:45.418Z,2.30
2022-10-14T11:10:21.472Z,2.00
2022-10-14T11:15:44.283Z,2.00
2022-10-14T11:21:09.711Z,2.15
2022-10-14T11:26:24.454Z,2.00
2022-10-14T11:31:46.220Z,2.55
2022-10-14T11:37:09.267Z,2.25
2022-10-14T11:42:56.207Z,1.85
2022-10-14T11:48:17.726Z,2.38
2022-10-14T11:53:44.861Z,2.40
2022-10-14T11:58:47.751Z,2.50
2022-10-14T12:04:10.511Z,2.10
2022-10-14T12:09:26.795Z,2.20
2022-10-14T12:14:42.616Z,2.65
2022-10-14T12:19:45.254Z,1.70
2022-10-14T12:24:53.786Z,1.90
2022-10-14T12:29:58.994Z,3.50
2022-10-14T12:35:02.032Z,2.15
2022-10-14T12:40:03.776Z,1.75
2022-10-14T12:45:22.005Z,3.20
2022-10-14T12:50:30.212Z,2.30
2022-10-14T12:55:39.103Z,1.80
2022-10-14T13:00:41.086Z,1.60
2022-10-14T13:05:44.826Z,1.60
2022-10-14T13:10:48.430Z,2.00
2022-10-14T13:15:53.291Z,2.42
2022-10-14T13:20:55.001Z,1.98
2022-10-14T13:26:32.015Z,1.75
2022-10-14T13:32:03.633Z,1.73
2022-10-14T13:37:30.978Z,1.48
2022-10-14T13:42:35.869Z,1.88
2022-10-14T13:47:42.055Z,1.65
2022-10-14T13:52:59.198Z,1.90
2022-10-14T13:58:19.258Z,1.88
2022-10-14T14:03:30.231Z,1.60
2022-10-14T14:08:40.270Z,1.95
2022-10-14T14:13:58.894Z,2.30
2022-10-14T14:19:10.552Z,1.90
2022-10-14T14:24:38.583Z,2.20
2022-10-14T14:29:44.029Z,2.17
2022-10-14T14:34:47.835Z,1.63
2022-10-14T14:40:00.643Z,2.67
2022-10-14T14:45:31.481Z,1.90
2022-10-14T14:50:38.485Z,2.75
2022-10-14T14:56:03.009Z,2.53
2022-10-14T15:01:06.540Z,2.17
2022-10-14T15:06:16.448Z,2.80
2022-10-14T15:11:19.667Z,2.35
2022-10-14T15:16:36.474Z,2.70
2022-10-14T15:21:38.231Z,2.40
2022-10-14T15:26:39.931Z,4.80
2022-10-14T15:31:48.776Z,2.75
2022-10-14T15:36:52.100Z,2.88
2022-10-14T15:41:53.987Z,3.60
2022-10-14T15:47:15.235Z,3.47
2022-10-14T15:52:19.330Z,2.88
2022-10-14T15:57:23.765Z,2.83
2022-10-14T16:02:32.676Z,2.70
2022-10-14T16:07:34.416Z,3.00
2022-10-14T16:12:36.188Z,2.90
2022-10-14T16:17:38.010Z,2.80
2022-10-14T16:22:39.621Z,3.20
2022-10-14T16:27:41.873Z,2.40
2022-10-14T16:32:43.510Z,4.70
2022-10-14T16:37:45.177Z,3.63
2022-10-14T16:42:47.041Z,4.40
2022-10-14T16:47:48.687Z,4.25
2022-10-14T16:53:08.905Z,3.65
2022-10-14T16:58:10.531Z,3.88
2022-10-14T17:03:12.315Z,10.48
2022-10-14T17:08:13.952Z,3.70
2022-10-14T17:13:17.372Z,3.90
2022-10-14T17:18:22.044Z,3.50
2022-10-14T17:23:28.359Z,3.72
2022-10-14T17:28:30.544Z,4.18
2022-10-14T17:33:34.215Z,4.55
2022-10-14T17:38:36.198Z,4.93
2022-10-14T17:43:38.612Z,5.72
2022-10-14T17:48:42.250Z,4.22
2022-10-14T17:53:43.993Z,7.10
2022-10-14T17:58:45.741Z,5.95
2022-10-14T18:03:47.601Z,5.53
2022-10-14T18:08:53.979Z,4.60
2022-10-14T18:13:59.115Z,4.38
2022-10-14T18:19:05.541Z,4.00
2022-10-14T18:24:07.494Z,4.65
2022-10-14T18:29:09.555Z,4.72
2022-10-14T18:34:12.031Z,3.83
2022-10-14T18:39:13.860Z,4.38
2022-10-14T18:44:15.601Z,5.38
2022-10-14T18:49:17.367Z,4.57
2022-10-14T18:54:20.863Z,4.82
2022-10-14T18:59:23.513Z,4.70
2022-10-14T19:04:26.878Z,5.20
2022-10-14T19:09:30.005Z,5.45
2022-10-14T19:14:31.895Z,6.00
2022-10-14T19:19:33.630Z,6.45
2022-10-14T19:24:35.266Z,5.97
2022-10-14T19:29:36.953Z,5.45
2022-10-14T19:34:38.797Z,5.30
2022-10-14T19:39:41.174Z,5.32
2022-10-14T19:44:42.847Z,5.35
2022-10-14T19:49:44.600Z,5.80
2022-10-14T19:54:46.200Z,6.03
2022-10-14T19:59:47.888Z,5.78
2022-10-14T20:04:49.638Z,6.40
2022-10-14T20:09:51.281Z,6.50
2022-10-14T20:14:53.812Z,6.55
2022-10-14T20:19:55.632Z,6.22
2022-10-14T20:24:57.252Z,6.35
2022-10-14T20:29:59.131Z,6.53
2022-10-14T20:35:00.862Z,6.55
2022-10-14T20:40:02.589Z,6.97
2022-10-14T20:45:04.727Z,6.95
2022-10-14T20:50:06.962Z,6.78
2022-10-14T20:55:08.878Z,6.70
2022-10-14T21:00:11.085Z,7.22
2022-10-14T21:05:12.760Z,6.90
2022-10-14T21:10:14.562Z,7.18
2022-10-14T21:15:16.394Z,7.15
2022-10-14T21:20:18.184Z,7.50
2022-10-14T21:25:19.949Z,7.97
2022-10-14T21:30:21.693Z,7.97
2022-10-14T21:35:23.492Z,8.25
2022-10-14T21:40:25.300Z,9.55
2022-10-14T21:45:27.041Z,9.68
2022-10-14T21:50:28.768Z,9.70
2022-10-14T21:55:30.506Z,9.52
2022-10-14T22:00:32.399Z,10.18
2022-10-14T22:05:35.286Z,9.57
2022-10-14T22:10:40.900Z,10.18
2022-10-14T22:15:43.385Z,10.20
2022-10-14T22:20:45.499Z,13.13
2022-10-14T22:25:47.129Z,10.65
2022-10-14T22:30:48.833Z,11.10
2022-10-14T22:35:53.167Z,10.73
2022-10-14T22:40:54.794Z,10.43
2022-10-14T22:46:12.088Z,10.73
2022-10-14T22:51:16.095Z,10.85
2022-10-14T22:56:22.856Z,10.15
2022-10-14T23:01:27.701Z,10.70
2022-10-14T23:06:30.325Z,10.75
2022-10-14T23:11:32.273Z,10.63
2022-10-14T23:16:34.359Z,10.07
2022-10-14T23:21:37.446Z,10.10
2022-10-14T23:26:39.161Z,9.98
2022-10-14T23:31:41.456Z,9.88
2022-10-14T23:36:43.256Z,9.80
2022-10-14T23:41:45.098Z,9.40
2022-10-14T23:46:46.831Z,9.40
2022-10-14T23:51:48.789Z,9.75
2022-10-14T23:56:50.674Z,8.93
